weather.gov     
National Weather Service

Terminal Aerodrome Forecast
NWS Homepage
This page is being discontinued on March 12, 2014.
The same data is available at this site. Please update your bookmarks.
Thank you, and we apologize for the inconvenience.
Please send an email to SR-SRH.Webmaster@noaa.gov with any concerns.


Current Version
Previous Version:    01  02  03  04  05  06  07  08  09  10  11  12  13  14  15  16  17  18  19  20  21  22  23  24  25  26  27  28  29  30  
   31  32  33  34  35  
[Printable]
450
FTUS46 KPDT 232300
TAFPSC
TAF
KPSC 232320Z 2400/2424 VRB06KT P6SM -SHRA BKN050 OVC080
     FM240100 20008KT P6SM VCSH BKN060 OVC090
     FM240600 22011KT P6SM -SHRA BKN050 OVC070
     FM241200 21015G25KT P6SM -SHRA BKN060 OVC070
     FM241700 21015G25KT P6SM VCSH SCT050 BKN060
     FM242100 24015G25KT P6SM SCT050=


U.S. Dept. of Commerce
NOAA National Weather Service
1325 East West Highway
Silver Spring, MD 20910
E-mail: w-nws.webmaster@noaa.gov
Page last modified: May 16, 2007
NATIONAL WEATHER SERVICE: for Safety, for Work, for Fun - FOR LIFE